Strona główna
METAR-TAF:

METAR-TAF

Lotnisko :

Pine Ridge, Dakota Południowa, Stany Zjednoczone

Szerokość geograficzna: 43-01-32N, Długość geograficzna: 102-31-23W, wysokość: 1015 m

Aktualna obserwacja pogody

Raport powstał 1 godzina i 1 minut temu, godzina 09:52 UTC
Wiatr 7 kt od południe
Temperatura 13°C
Wilgotność 94%
Ciśnienie 1010 hPa
Widzialność: 16.1 km
bezchmurnie

METAR: KIEN 190952Z AUTO 19007KT 10SM CLR 13/12 A2982 RMK AO2 SLP079 T01330117

czas: 04:53 (10:53 UTC)


TAF: brakujący

Obserwacja i prognoza pogody dla ponad 4000 lotnisk (raport METAR i TAF).

Dostępne stacje oznaczono żółtymi i czerwonymi punktami na mapie.

Najedź kursorem aby zobaczyć nazwę stacji.

Kliknij aby zobaczyć obserwacje i prognozy pogody.

Aby zmienić mapę: kliknij na zielony przycisk z czarnym krzyżykiem, aby powiększyć; na zielony przycisk z myślnikiem, aby pomniejszyć; na zielone strzałki, aby przejść do map sąsiednich.


METAR-TAF: